St Louis Regional Airport
KALN : rendu visible

Aérodrome :











RETROUVEZ-NOUS SUR...

 
LOGIN :

S'inscrire | Disclaimer

   EN    FR    IT 

 









Légende :    VFR   VFR Marginal   IFR   IFR Intensif   IFR Très Intensif
Visi : 
Plafond : 
>= 8 km
>= 3000ft
5 à 8 km
1000 à 3000 ft
1500m à 5 km
500 à 1000 ft
800 à 1500m
200 à 500 ft
< 800m
< 200 ft
Symboles :   Orages  Brouillard  Fortes neiges  Fortes précipitations  Vent > 20 kt






- Altitude de l'aérodrome : 544 ft


KALN - St Louis Regional

DERNIER METAR :
  • 220715Z AUTO 00000KT 10SM CLR 11/11 A3023 RMK AO2 T01080108

METARs EXPIRÉS :
  • 220655Z AUTO 00000KT 7SM CLR 11/11 A3024 RMK AO2 T01120112
  • 220635Z AUTO 00000KT 10SM CLR 11/11 A3024 RMK AO2 T01140114
  • 220615Z AUTO 00000KT 10SM CLR 11/11 A3024 RMK AO2 T01090109
  • 220555Z AUTO 00000KT 10SM CLR 12/12 A3024 RMK AO2 T01190119 10200 20116 402550058
  • 220535Z AUTO 00000KT 10SM CLR 12/12 A3024 RMK AO2 T01200120
  • 220515Z AUTO 00000KT 10SM CLR 12/12 A3025 RMK AO2 T01230123
  • 220455Z AUTO 00000KT 10SM CLR 13/13 A3026 RMK AO2 T01300130
  • 220435Z AUTO 00000KT 10SM CLR 15/13 A3026 RMK AO2 T01460134

TAF N/A
FIR KZKC / Amérique du Nord



MET'MAP, la Météo Aéronautique d'un coup d'oeil ! - Copyright ORBIFLY Décembre 2007 - Disclaimer

ORBIFLY MET'MAP TEAM :

Programmation & Développement : Alexandra Zaïnal
Sur une idée originale de : Baudouin d'Aumeries
Assistance à la programmation : Marc-Olivier Méhu
Soutien technique & logistique : Manuel Goepfert

Contact : metmap@orbifly.com




SOURCES & CREDITS :

   NOAA       Earth
Advisory